Time;durP1;ratioP1;P1;durP2;ratioP2;P2;SDS_P1;SDS_P2;PMS_P1;PMS_P2;Temp;Humidity;BMP_temperature;BMP_pressure;BME280_temperature;BME280_humidity;BME280_pressure;Samples;Min_cycle;Max_cycle;Signal;HPM_P1;HPM_P2
2022/12/25 00:01:50;;;;;;;;;25.25;23.50;;;;;11.54;90.64;100969.59;5094051;27;45503;-66
2022/12/25 00:04:16;;;;;;;;;22.00;21.50;;;;;11.51;90.76;100959.06;5108801;27;45556;-65
2022/12/25 00:06:41;;;;;;;;;22.25;19.75;;;;;11.56;90.61;100966.09;5104089;27;45568;-65
2022/12/25 00:09:07;;;;;;;;;23.00;19.00;;;;;11.58;90.86;100974.84;5096379;27;46108;-65
2022/12/25 00:11:33;;;;;;;;;26.50;22.75;;;;;11.55;90.26;100964.31;5111750;27;45839;-63
2022/12/25 00:13:58;;;;;;;;;20.75;17.25;;;;;11.54;90.64;100962.59;5114692;27;45700;-63
2022/12/25 00:16:30;;;;;;;;;24.25;22.00;;;;;11.59;90.70;100971.34;5114624;27;46552;-65
2022/12/25 00:19:00;;;;;;;;;20.50;19.25;;;;;11.57;90.83;100967.84;5114286;27;46258;-64
2022/12/25 00:21:26;;;;;;;;;30.00;22.25;;;;;11.55;91.01;100963.47;5114077;27;45484;-64
2022/12/25 00:23:55;;;;;;;;;22.50;19.75;;;;;11.51;90.58;100962.59;5114026;27;45518;-64
2022/12/25 00:26:21;;;;;;;;;11.75;5.00;;;;;11.45;90.92;100947.69;5115353;27;45647;-64
2022/12/25 00:28:54;;;;;;;;;29.25;22.00;;;;;11.52;90.85;100945.09;5114726;27;46090;-65
2022/12/25 00:31:21;;;;;;;;;25.50;24.00;;;;;11.55;91.03;100955.59;5114222;27;45450;-67
2022/12/25 00:33:48;;;;;;;;;24.50;22.50;;;;;11.45;91.21;100938.97;5113930;27;45689;-64
2022/12/25 00:36:16;;;;;;;;;24.00;20.75;;;;;11.57;91.11;100951.22;5114759;27;45805;-64
2022/12/25 00:38:42;;;;;;;;;24.00;20.25;;;;;11.61;91.10;100966.09;5113664;27;45991;-64
2022/12/25 00:41:14;;;;;;;;;24.00;18.75;;;;;11.57;90.88;100959.09;5113965;27;45407;-65
2022/12/25 00:43:43;;;;;;;;;21.00;16.75;;;;;11.62;90.66;100967.84;5096266;27;45357;-65
2022/12/25 00:46:11;;;;;;;;;24.25;15.50;;;;;11.71;90.17;100973.09;5105118;27;45484;-67
2022/12/25 00:48:38;;;;;;;;;19.00;15.25;;;;;11.72;89.96;100959.13;5081653;27;47742;-67
2022/12/25 00:51:07;;;;;;;;;24.25;18.50;;;;;11.78;89.80;100946.00;5098032;27;45801;-65
2022/12/25 00:53:33;;;;;;;;;24.50;20.50;;;;;11.79;89.75;100949.50;5092042;27;45508;-65
2022/12/25 00:56:02;;;;;;;;;20.75;17.75;;;;;11.78;89.91;100953.88;5095868;27;45581;-64
2022/12/25 00:58:29;;;;;;;;;22.50;16.75;;;;;11.74;90.14;100938.13;5093276;27;45899;-64
2022/12/25 01:00:55;;;;;;;;;18.50;16.50;;;;;11.75;89.66;100935.50;5093670;27;45271;-65
2022/12/25 01:03:21;;;;;;;;;27.00;21.75;;;;;11.79;89.44;100939.00;5105453;27;45524;-67
2022/12/25 01:05:56;;;;;;;;;29.50;25.00;;;;;11.75;89.52;100927.63;5111818;27;45431;-63
2022/12/25 01:08:22;;;;;;;;;20.00;18.75;;;;;11.79;88.87;100929.41;5124641;27;46688;-64
2022/12/25 01:10:55;;;;;;;;;24.50;20.75;;;;;11.76;89.61;100937.25;5102221;27;45390;-64
2022/12/25 01:13:21;;;;;;;;;22.00;19.00;;;;;11.76;89.39;100931.13;5106868;27;45405;-63
2022/12/25 01:15:51;;;;;;;;;24.50;19.25;;;;;11.75;89.82;100940.75;5111700;27;45641;-64
2022/12/25 01:18:18;;;;;;;;;21.25;17.25;;;;;11.69;89.98;100927.63;5112995;27;45441;-64
2022/12/25 01:20:45;;;;;;;;;21.75;19.75;;;;;11.75;90.05;100932.88;5114435;27;45523;-64
2022/12/25 01:23:10;;;;;;;;;17.75;17.00;;;;;11.66;90.07;100919.75;5093158;27;45487;-63
2022/12/25 01:25:36;;;;;;;;;24.50;18.00;;;;;11.66;90.04;100925.88;5094388;27;45533;-67
2022/12/25 01:28:01;;;;;;;;;14.25;12.75;;;;;11.76;89.82;100936.38;5093377;27;45926;-64
2022/12/25 01:30:27;;;;;;;;;20.50;15.50;;;;;11.69;89.92;100938.13;5092087;27;45394;-64
2022/12/25 01:32:53;;;;;;;;;20.75;13.50;;;;;11.77;89.66;100933.75;5096153;27;45563;-66
2022/12/25 01:35:18;;;;;;;;;18.50;14.50;;;;;11.80;89.37;100935.50;5095087;27;45457;-64
2022/12/25 01:37:44;;;;;;;;;17.00;15.75;;;;;11.79;88.94;100931.13;5093263;27;46545;-65
2022/12/25 01:40:10;;;;;;;;;15.00;14.00;;;;;11.86;89.29;100952.13;5093181;27;45659;-64
2022/12/25 01:42:35;;;;;;;;;18.00;15.50;;;;;11.89;89.31;100956.53;5096161;27;45426;-64
2022/12/25 01:45:41;;;;;;;;;15.50;12.75;;;;;11.96;89.37;100953.03;5091858;27;45590;-67
2022/12/25 01:48:18;;;;;;;;;16.50;13.75;;;;;12.00;88.88;100964.41;5096219;27;46017;-64
2022/12/25 01:50:49;;;;;;;;;14.75;11.25;;;;;12.05;88.55;100954.78;5098562;27;45254;-64
2022/12/25 01:53:15;;;;;;;;;12.25;11.00;;;;;12.04;88.20;100937.28;5097369;27;45511;-64
2022/12/25 01:55:44;;;;;;;;;11.75;11.50;;;;;12.16;88.12;100947.75;5098026;27;45594;-65
2022/12/25 01:58:10;;;;;;;;;13.00;12.33;;;;;12.15;87.18;100948.66;5091022;27;47878;-65
2022/12/25 02:00:35;;;;;;;;;11.33;7.67;;;;;12.16;87.14;100937.25;5091493;27;45778;-66
2022/12/25 02:03:01;;;;;;;;;15.25;9.25;;;;;12.21;87.32;100942.50;5092661;27;45514;-63
2022/12/25 02:05:29;;;;;;;;;7.67;7.67;;;;;12.26;87.12;100935.50;5097842;27;45417;-64
2022/12/25 02:07:58;;;;;;;;;6.25;4.00;;;;;12.24;87.11;100919.75;5117838;27;46295;-69
2022/12/25 02:10:24;;;;;;;;;7.50;7.50;;;;;12.30;87.30;100924.13;5115550;27;45797;-65
2022/12/25 02:12:53;;;;;;;;;7.00;7.00;;;;;12.33;87.09;100939.00;5111751;27;45872;-66
2022/12/25 02:15:26;;;;;;;;;15.25;13.00;;;;;12.03;86.68;100904.91;5117847;27;45389;-63
2022/12/25 02:18:16;;;;;;;;;14.50;12.50;;;;;12.11;87.34;100943.41;5114283;27;45589;-68
2022/12/25 02:21:11;;;;;;;;;16.67;14.33;;;;;12.08;87.77;100939.03;5111629;27;45468;-64
2022/12/25 02:23:37;;;;;;;;;17.25;14.50;;;;;12.11;88.24;100927.66;5116610;27;45498;-65
2022/12/25 02:26:02;;;;;;;;;15.25;9.75;;;;;12.17;87.58;100922.38;5117956;27;45621;-64
2022/12/25 02:28:51;;;;;;;;;14.75;12.00;;;;;12.14;87.88;100925.88;5118227;27;46363;-64
2022/12/25 02:31:31;;;;;;;;;16.00;14.25;;;;;12.09;87.74;100928.50;5117116;27;45340;-67
2022/12/25 02:34:12;;;;;;;;;18.50;15.25;;;;;12.12;87.54;100934.63;5117978;27;45408;-68
2022/12/25 02:37:09;;;;;;;;;6.75;6.75;;;;;12.13;87.86;100916.28;5121418;27;45338;-65
2022/12/25 02:39:58;;;;;;;;;11.50;8.75;;;;;12.06;87.75;100906.66;5120439;27;45370;-65
2022/12/25 03:08:20;;;;;;;;;19.50;13.75;;;;;11.92;89.71;100901.41;5119435;27;45577;-65
2022/12/25 03:13:42;;;;;;;;;14.00;12.75;;;;;11.84;89.38;100863.75;5115734;27;45780;-68
2022/12/25 03:18:54;;;;;;;;;20.75;16.50;;;;;11.80;89.78;100877.78;5120835;27;45427;-69
2022/12/25 03:26:54;;;;;;;;;24.50;17.25;;;;;11.71;91.79;100881.28;5116429;27;45647;-64
2022/12/25 03:32:21;;;;;;;;;22.00;19.00;;;;;11.69;91.10;100867.28;5116119;27;45547;-68
2022/12/25 04:37:23;;;;;;;;;30.50;22.00;;;;;11.68;92.03;100792.06;5114927;27;45443;-64
2022/12/25 04:39:49;;;;;;;;;17.00;16.75;;;;;11.65;91.26;100771.97;5115047;27;45569;-63
2022/12/25 04:42:15;;;;;;;;;19.75;18.50;;;;;11.68;91.55;100779.81;5115296;27;46245;-64
2022/12/25 04:44:41;;;;;;;;;17.00;17.00;;;;;11.64;91.56;100782.44;5118247;27;45600;-64
2022/12/25 04:47:06;;;;;;;;;20.75;16.00;;;;;11.77;91.67;100792.06;5119273;27;45392;-65
2022/12/25 04:49:32;;;;;;;;;22.75;17.25;;;;;11.82;91.25;100806.03;5114407;27;45624;-66
2022/12/25 04:51:57;;;;;;;;;18.75;15.50;;;;;11.70;91.08;100784.19;5114305;27;45868;-64
2022/12/25 04:54:23;;;;;;;;;16.00;15.00;;;;;11.84;91.35;100808.63;5108756;27;45444;-65
2022/12/25 04:56:48;;;;;;;;;21.75;16.25;;;;;11.83;91.10;100799.91;5106044;27;45375;-63
2022/12/25 04:59:14;;;;;;;;;16.50;13.75;;;;;11.88;90.63;100795.53;5114342;27;45411;-64
2022/12/25 05:01:40;;;;;;;;;23.50;19.00;;;;;11.92;90.08;100793.81;5117527;27;45646;-67
2022/12/25 05:04:05;;;;;;;;;23.50;21.00;;;;;11.90;89.83;100789.44;5113526;27;45534;-66
2022/12/25 05:06:31;;;;;;;;;27.75;22.25;;;;;11.85;90.34;100784.16;5114868;27;45411;-66
2022/12/25 05:08:56;;;;;;;;;23.00;20.00;;;;;11.81;91.14;100759.66;5114797;27;45337;-63
2022/12/25 05:11:22;;;;;;;;;23.50;19.25;;;;;11.82;90.43;100724.69;5114412;27;46545;-64
2022/12/25 05:13:48;;;;;;;;;25.00;21.50;;;;;11.81;90.19;100708.94;5116313;27;45628;-64
2022/12/25 05:16:19;;;;;;;;;29.50;22.25;;;;;11.83;90.34;100704.56;5113121;27;45905;-65
2022/12/25 05:18:47;;;;;;;;;34.25;24.75;;;;;11.87;90.22;100717.69;5114731;27;45450;-66
2022/12/25 05:21:12;;;;;;;;;22.25;19.75;;;;;11.90;90.18;100729.06;5114582;27;45971;-64
2022/12/25 05:23:47;;;;;;;;;26.50;22.50;;;;;11.94;89.98;100752.69;5114405;27;45475;-65
2022/12/25 05:26:14;;;;;;;;;19.50;16.50;;;;;11.92;90.29;100748.31;5116415;27;45406;-64
2022/12/25 05:28:39;;;;;;;;;19.25;15.50;;;;;11.95;89.84;100743.91;5114578;27;45712;-65
2022/12/25 05:31:05;;;;;;;;;24.50;17.75;;;;;11.99;89.88;100747.41;5114150;27;46192;-64
2022/12/25 05:33:31;;;;;;;;;17.00;15.50;;;;;11.92;89.97;100743.06;5114077;27;45371;-64
2022/12/25 05:35:56;;;;;;;;;20.00;14.25;;;;;11.95;89.74;100733.41;5112800;27;45619;-65
2022/12/25 05:38:22;;;;;;;;;23.00;18.50;;;;;11.94;89.63;100738.69;5115935;27;45468;-66
2022/12/25 05:40:50;;;;;;;;;20.00;18.00;;;;;11.93;90.17;100737.78;5117164;27;47581;-64
2022/12/25 05:43:16;;;;;;;;;24.50;18.75;;;;;11.99;89.43;100750.91;5118543;27;45488;-64
2022/12/25 05:45:41;;;;;;;;;20.75;15.75;;;;;11.97;89.84;100768.41;5114712;27;45343;-63
2022/12/25 05:48:08;;;;;;;;;17.25;14.75;;;;;11.98;89.91;100767.53;5112710;27;45454;-64
2022/12/25 05:50:36;;;;;;;;;19.50;15.75;;;;;11.97;89.80;100770.16;5112519;27;45512;-63
2022/12/25 05:53:04;;;;;;;;;21.00;13.75;;;;;11.97;89.83;100771.03;5112303;27;45488;-63
2022/12/25 05:55:35;;;;;;;;;23.00;15.75;;;;;11.90;90.09;100755.31;5101386;27;45495;-65
2022/12/25 05:58:01;;;;;;;;;18.00;14.75;;;;;11.84;90.38;100751.81;5114328;27;45437;-64
2022/12/25 06:00:27;;;;;;;;;19.50;16.50;;;;;11.83;90.33;100744.78;5129250;27;46979;-64
2022/12/25 06:02:53;;;;;;;;;18.75;16.50;;;;;11.86;90.01;100743.91;5113475;27;45324;-64
2022/12/25 06:05:18;;;;;;;;;18.25;16.25;;;;;11.92;89.79;100756.19;5113718;27;45382;-63
2022/12/25 06:07:44;;;;;;;;;16.50;15.75;;;;;11.87;89.64;100754.44;5112562;27;45520;-63
2022/12/25 06:10:10;;;;;;;;;22.75;17.25;;;;;11.84;90.16;100743.94;5116748;27;45715;-66
2022/12/25 06:12:35;;;;;;;;;21.50;19.50;;;;;11.81;90.28;100736.03;5121043;27;45527;-62
2022/12/25 06:15:01;;;;;;;;;25.00;15.75;;;;;11.75;90.72;100743.09;5117373;27;45423;-64
2022/12/25 06:17:26;;;;;;;;;15.50;13.25;;;;;11.67;91.32;100719.47;5116207;27;45560;-67
2022/12/25 06:19:56;;;;;;;;;20.25;16.75;;;;;11.76;90.83;100731.69;5117748;27;46378;-66
2022/12/25 06:22:21;;;;;;;;;18.00;14.25;;;;;11.71;91.07;100723.84;5133510;27;45467;-65
2022/12/25 06:24:47;;;;;;;;;19.25;16.25;;;;;11.62;90.85;100719.47;5115581;27;45524;-65
2022/12/25 06:27:12;;;;;;;;;22.00;15.00;;;;;11.67;91.39;100716.84;5119117;27;46030;-64
2022/12/25 06:29:38;;;;;;;;;19.75;14.75;;;;;11.68;91.52;100711.59;5116519;27;46404;-69
2022/12/25 06:32:03;;;;;;;;;15.25;14.00;;;;;11.65;90.81;100694.97;5117489;27;45472;-64
2022/12/25 06:34:29;;;;;;;;;15.50;13.75;;;;;11.57;91.74;100689.78;5121403;27;45488;-65
2022/12/25 06:36:54;;;;;;;;;19.50;16.25;;;;;11.50;91.55;100679.31;5121804;27;45595;-64
2022/12/25 06:39:20;;;;;;;;;16.75;14.50;;;;;11.63;91.50;100699.38;5121079;27;45905;-66
2022/12/25 06:41:46;;;;;;;;;19.50;16.00;;;;;11.58;91.19;100693.25;5121299;27;45464;-65
2022/12/25 06:44:13;;;;;;;;;20.00;14.75;;;;;11.52;91.63;100682.81;5115996;27;45706;-64
2022/12/25 06:46:39;;;;;;;;;14.00;12.75;;;;;11.57;91.84;100692.41;5115069;27;45335;-65
2022/12/25 06:49:04;;;;;;;;;18.50;14.50;;;;;11.59;92.01;100689.78;5116349;27;45709;-64
2022/12/25 06:51:31;;;;;;;;;17.25;14.50;;;;;11.57;91.92;100694.16;5117184;27;45463;-68
2022/12/25 06:53:58;;;;;;;;;15.50;13.50;;;;;11.61;91.46;100699.38;5115042;27;46790;-65
2022/12/25 06:56:26;;;;;;;;;19.75;16.50;;;;;11.59;91.35;100701.13;5102570;27;45854;-64
2022/12/25 06:58:54;;;;;;;;;17.00;13.75;;;;;11.55;91.43;100686.28;5119833;27;45550;-70
2022/12/25 07:01:27;;;;;;;;;17.25;14.25;;;;;11.65;91.13;100694.97;5119434;27;45517;-66
2022/12/25 07:03:57;;;;;;;;;16.50;12.75;;;;;11.64;91.24;100706.38;5116409;27;45714;-64
2022/12/25 07:06:22;;;;;;;;;16.00;12.75;;;;;11.66;90.96;100715.13;5119525;27;45761;-68
2022/12/25 07:08:48;;;;;;;;;15.75;13.75;;;;;11.67;90.74;100716.84;5117460;27;46472;-64
2022/12/25 07:11:14;;;;;;;;;16.50;12.75;;;;;11.69;90.49;100717.72;5116956;27;45775;-68
2022/12/25 07:13:40;;;;;;;;;7.00;6.50;;;;;11.57;90.94;100695.00;5115445;27;45422;-63
2022/12/25 07:16:06;;;;;;;;;15.25;12.50;;;;;11.46;90.52;100667.97;5117782;27;45369;-65
2022/12/25 07:18:33;;;;;;;;;13.00;12.50;;;;;11.58;90.89;100691.53;5116440;27;46387;-65
2022/12/25 07:21:05;;;;;;;;;14.25;13.50;;;;;11.66;90.75;100699.38;5115492;27;45412;-65
2022/12/25 07:23:30;;;;;;;;;19.25;14.00;;;;;11.67;90.21;100690.59;5115830;27;45482;-64
2022/12/25 07:25:59;;;;;;;;;13.75;13.75;;;;;11.64;90.14;100677.50;5114949;27;45668;-63
2022/12/25 07:28:26;;;;;;;;;19.00;14.00;;;;;11.64;90.71;100664.41;5114496;27;46758;-64
2022/12/25 07:30:52;;;;;;;;;21.50;14.75;;;;;11.64;90.05;100656.53;5117617;27;45920;-62
2022/12/25 07:33:17;;;;;;;;;15.75;14.50;;;;;11.53;90.77;100635.59;5099369;27;45976;-62
2022/12/25 07:35:43;;;;;;;;;19.75;12.50;;;;;11.56;91.27;100640.81;5114649;27;45760;-66
2022/12/25 07:38:09;;;;;;;;;15.25;10.00;;;;;11.53;90.50;100637.31;5115458;27;46012;-64
2022/12/25 07:40:35;;;;;;;;;14.75;12.00;;;;;11.48;90.53;100639.97;5116275;27;45768;-63
2022/12/25 07:43:00;;;;;;;;;12.00;11.25;;;;;11.44;90.72;100639.13;5118723;27;45608;-64
2022/12/25 07:45:26;;;;;;;;;15.50;14.50;;;;;11.43;90.90;100629.47;5120636;27;45482;-63
2022/12/25 07:47:52;;;;;;;;;17.75;13.00;;;;;11.35;90.86;100599.81;5120174;27;45411;-65
2022/12/25 07:50:18;;;;;;;;;14.00;12.00;;;;;11.41;90.33;100615.53;5117316;27;45512;-63
2022/12/25 07:52:45;;;;;;;;;14.00;13.00;;;;;11.34;90.28;100634.78;5114414;27;45397;-62
2022/12/25 07:55:12;;;;;;;;;12.50;12.25;;;;;11.32;90.62;100640.88;5106920;27;45482;-63
2022/12/25 07:57:38;;;;;;;;;10.50;10.50;;;;;11.42;90.12;100658.34;5116737;27;46744;-62
2022/12/25 08:00:05;;;;;;;;;13.00;13.00;;;;;11.41;90.29;100660.09;5117791;27;45616;-64
2022/12/25 08:02:31;;;;;;;;;15.75;12.25;;;;;11.41;89.86;100670.59;5114974;27;45280;-64
2022/12/25 08:04:57;;;;;;;;;12.00;12.00;;;;;11.40;89.54;100681.09;5118741;27;45543;-63
2022/12/25 08:07:23;;;;;;;;;13.75;10.00;;;;;11.34;89.65;100657.47;5118575;27;47140;-66
2022/12/25 08:09:48;;;;;;;;;14.25;13.25;;;;;11.49;89.14;100665.31;5118425;27;45489;-63
2022/12/25 08:12:15;;;;;;;;;12.50;12.00;;;;;11.44;89.42;100659.22;5120188;27;45379;-64
2022/12/25 08:14:40;;;;;;;;;19.00;12.75;;;;;11.54;88.80;100671.44;5118733;27;45560;-69
2022/12/25 08:17:07;;;;;;;;;14.00;11.50;;;;;11.49;88.77;100682.81;5120152;27;45417;-64
2022/12/25 08:19:32;;;;;;;;;10.50;7.50;;;;;11.27;89.14;100655.75;5116574;27;45781;-64
2022/12/25 08:21:58;;;;;;;;;11.25;8.50;;;;;11.51;88.48;100689.81;5115773;27;45379;-64
2022/12/25 08:24:23;;;;;;;;;13.50;12.25;;;;;11.51;88.76;100683.66;5115650;27;45397;-64
2022/12/25 08:26:49;;;;;;;;;12.75;11.25;;;;;11.43;88.42;100673.19;5114205;27;47047;-64
2022/12/25 08:29:15;;;;;;;;;14.75;11.75;;;;;11.41;88.03;100662.72;5113660;27;45529;-63
2022/12/25 08:31:42;;;;;;;;;17.75;12.25;;;;;11.44;88.51;100665.34;5114162;27;45563;-64
2022/12/25 08:34:09;;;;;;;;;13.25;8.50;;;;;11.44;88.16;100667.09;5115502;27;46028;-65
2022/12/25 08:36:36;;;;;;;;;14.00;13.25;;;;;11.45;88.00;100659.19;5113646;27;46365;-65
2022/12/25 08:39:05;;;;;;;;;15.00;13.00;;;;;11.48;88.03;100666.19;5114666;27;45357;-63
2022/12/25 08:41:31;;;;;;;;;15.50;13.25;;;;;11.43;87.70;100666.19;5115096;27;45443;-65
2022/12/25 08:43:57;;;;;;;;;13.00;9.25;;;;;11.42;87.83;100653.97;5108271;27;45483;-65
2022/12/25 08:46:23;;;;;;;;;10.75;9.50;;;;;11.42;87.40;100648.72;5097146;27;45507;-64
2022/12/25 08:48:49;;;;;;;;;16.25;13.50;;;;;11.43;87.35;100663.56;5095133;27;45527;-65
2022/12/25 08:51:18;;;;;;;;;14.50;12.25;;;;;11.42;87.80;100661.84;5092808;27;45659;-68
2022/12/25 08:53:46;;;;;;;;;12.50;9.75;;;;;11.46;86.76;100636.50;5094270;27;45743;-68
2022/12/25 08:56:12;;;;;;;;;14.50;12.00;;;;;11.36;86.98;100619.03;5099664;27;46341;-65
2022/12/25 08:58:38;;;;;;;;;14.75;12.50;;;;;11.43;86.71;100626.84;5113745;27;45451;-66
2022/12/25 09:01:05;;;;;;;;;11.00;9.67;;;;;11.45;87.15;100659.19;5108480;27;45520;-66
2022/12/25 09:03:33;;;;;;;;;12.50;10.75;;;;;11.52;87.23;100670.56;5116655;27;45588;-66
2022/12/25 09:06:04;;;;;;;;;15.50;13.25;;;;;11.54;86.40;100665.31;5134649;27;47731;-64
2022/12/25 09:08:30;;;;;;;;;12.25;11.00;;;;;11.50;86.40;100660.94;5116854;27;45945;-65
2022/12/25 09:11:03;;;;;;;;;17.75;13.75;;;;;11.61;86.28;100659.16;5123893;27;45704;-63
2022/12/25 09:13:29;;;;;;;;;10.00;9.00;;;;;11.60;85.30;100652.16;5102851;27;45567;-65
2022/12/25 09:15:55;;;;;;;;;15.00;14.75;;;;;11.71;85.28;100665.25;5097999;27;46155;-63
2022/12/25 09:18:20;;;;;;;;;18.00;13.00;;;;;11.59;85.26;100659.16;5092650;27;45551;-65
2022/12/25 09:20:46;;;;;;;;;18.75;14.00;;;;;11.66;85.20;100658.25;5101537;27;45581;-64
2022/12/25 09:23:11;;;;;;;;;18.75;13.75;;;;;11.82;84.37;100658.22;5101378;27;45584;-65
2022/12/25 09:25:38;;;;;;;;;11.00;9.50;;;;;11.84;83.28;100657.34;5102065;27;46980;-63
2022/12/25 09:28:03;;;;;;;;;19.25;13.75;;;;;11.78;83.59;100667.84;5102911;27;45535;-64
2022/12/25 09:30:29;;;;;;;;;17.25;11.50;;;;;11.68;83.56;100690.63;5093964;27;45557;-63
2022/12/25 09:32:54;;;;;;;;;16.50;12.75;;;;;11.71;84.77;100679.25;5104001;27;45600;-66
2022/12/25 09:35:20;;;;;;;;;13.00;11.50;;;;;11.70;83.69;100687.09;5106423;27;46211;-63
2022/12/25 09:37:46;;;;;;;;;16.75;12.25;;;;;11.66;83.55;100681.88;5102952;27;45694;-66
2022/12/25 09:40:27;;;;;;;;;12.75;12.25;;;;;11.59;83.75;100661.78;5110506;27;45450;-68
2022/12/25 09:42:54;;;;;;;;;17.00;14.50;;;;;11.58;83.64;100673.16;5095559;27;45734;-66
2022/12/25 09:45:34;;;;;;;;;13.00;11.25;;;;;11.55;83.67;100667.91;5095771;27;45462;-63
2022/12/25 09:48:00;;;;;;;;;15.25;13.00;;;;;11.48;83.50;100646.97;5106568;27;45475;-65
2022/12/25 09:50:54;;;;;;;;;10.00;10.00;;;;;11.53;83.38;100653.97;5117682;27;45630;-65
